createdAt,value
2022-09-20T00:02:30.664Z,14.70
2022-09-20T00:05:03.756Z,14.70
2022-09-20T00:07:37.664Z,14.50
2022-09-20T00:10:05.001Z,14.50
2022-09-20T00:12:38.689Z,14.50
2022-09-20T00:15:06.442Z,14.50
2022-09-20T00:17:39.675Z,14.40
2022-09-20T00:20:06.871Z,14.40
2022-09-20T00:22:40.667Z,14.20
2022-09-20T00:25:08.532Z,14.10
2022-09-20T00:27:41.696Z,14.10
2022-09-20T00:30:09.539Z,14.20
2022-09-20T00:32:42.676Z,14.20
2022-09-20T00:35:09.712Z,14.00
2022-09-20T00:37:47.772Z,14.00
2022-09-20T00:40:18.073Z,14.10
2022-09-20T00:42:51.691Z,14.00
2022-09-20T00:45:25.334Z,14.00
2022-09-20T00:48:29.679Z,14.10
2022-09-20T00:51:08.712Z,14.30
2022-09-20T00:53:42.195Z,14.30
2022-09-20T00:56:20.709Z,14.20
2022-09-20T00:58:52.425Z,14.30
2022-09-20T01:01:25.772Z,14.20
2022-09-20T01:03:52.633Z,14.20
2022-09-20T01:06:25.724Z,14.00
2022-09-20T01:08:52.615Z,13.90
2022-09-20T01:11:25.706Z,13.90
2022-09-20T01:13:58.721Z,13.80
2022-09-20T01:16:25.803Z,13.80
2022-09-20T01:18:58.711Z,13.80
2022-09-20T01:21:31.691Z,13.90
2022-09-20T01:24:36.709Z,14.00
2022-09-20T01:27:49.699Z,13.90
2022-09-20T01:30:26.754Z,13.70
2022-09-20T01:33:27.749Z,13.50
2022-09-20T01:35:54.795Z,13.40
2022-09-20T01:38:50.735Z,13.30
2022-09-20T01:41:38.028Z,13.30
2022-09-20T01:44:52.721Z,13.50
2022-09-20T06:00:08.902Z,10.40
2022-09-20T06:02:43.618Z,10.60
2022-09-20T06:05:52.873Z,10.60
2022-09-20T06:08:44.901Z,10.70
2022-09-20T06:11:33.924Z,10.80
2022-09-20T06:14:34.666Z,11.00
2022-09-20T06:17:38.889Z,11.20
2022-09-20T06:20:46.671Z,11.50
2022-09-20T06:23:19.864Z,11.80
2022-09-20T06:26:29.219Z,12.00
2022-09-20T06:29:09.082Z,12.30
2022-09-20T06:31:36.062Z,12.60
2022-09-20T06:34:14.928Z,12.90
2022-09-20T06:36:47.932Z,13.10
2022-09-20T06:39:51.882Z,13.30
2022-09-20T06:42:18.769Z,15.80
2022-09-20T06:44:45.690Z,20.30
2022-09-20T06:47:19.926Z,22.60
2022-09-20T06:49:46.810Z,24.10
2022-09-20T06:52:27.881Z,25.70
2022-09-20T06:54:55.514Z,26.70
2022-09-20T06:57:41.922Z,27.50
2022-09-20T07:00:16.910Z,28.70
2022-09-20T07:02:49.908Z,29.20
2022-09-20T07:05:17.536Z,29.60
2022-09-20T07:07:44.377Z,30.30
2022-09-20T07:10:18.896Z,30.30
2022-09-20T07:12:51.892Z,30.80
2022-09-20T07:15:24.908Z,31.50
2022-09-20T07:17:57.939Z,31.80
2022-09-20T07:20:30.919Z,32.10
2022-09-20T07:22:57.759Z,32.40
2022-09-20T07:25:30.889Z,32.60
2022-09-20T07:28:03.921Z,33.30
2022-09-20T07:30:30.763Z,32.70
2022-09-20T07:32:57.596Z,32.90
2022-09-20T07:35:30.999Z,33.00
2022-09-20T07:37:58.251Z,32.70
2022-09-20T07:40:31.980Z,32.90
2022-09-20T07:42:58.944Z,33.10
2022-09-20T07:45:32.951Z,33.00
2022-09-20T07:48:00.089Z,33.20
2022-09-20T07:50:32.939Z,33.00
2022-09-20T07:52:59.827Z,32.90
2022-09-20T07:55:32.997Z,32.70
2022-09-20T07:58:05.979Z,32.80
2022-09-20T08:00:38.961Z,32.60
2022-09-20T08:03:05.799Z,32.70
2022-09-20T08:05:38.974Z,32.90
2022-09-20T08:08:11.988Z,33.00
2022-09-20T08:10:38.934Z,33.10
2022-09-20T08:16:07.656Z,33.10
2022-09-20T08:18:41.984Z,32.40
2022-09-20T08:21:09.864Z,31.90
2022-09-20T08:23:46.938Z,32.30
2022-09-20T08:26:25.989Z,32.10
2022-09-20T08:28:57.561Z,32.20
2022-09-20T08:31:33.007Z,32.00
2022-09-20T08:34:00.158Z,31.70
2022-09-20T08:36:36.680Z,31.50
2022-09-20T08:42:36.706Z,31.20
2022-09-20T08:45:22.703Z,31.00
2022-09-20T08:48:09.996Z,30.80
2022-09-20T08:50:37.185Z,31.40
2022-09-20T08:53:10.991Z,31.10
2022-09-20T08:55:37.847Z,30.80
2022-09-20T08:58:08.567Z,30.20
2022-09-20T09:00:42.993Z,29.80
2022-09-20T09:03:20.999Z,29.30
2022-09-20T09:05:49.872Z,29.30
2022-09-20T09:08:28.005Z,28.70
2022-09-20T09:10:57.931Z,28.20
2022-09-20T09:13:33.027Z,28.50
2022-09-20T09:16:05.429Z,28.30
2022-09-20T09:18:42.017Z,28.10
2022-09-20T09:21:09.954Z,27.90
2022-09-20T09:24:00.044Z,27.70
2022-09-20T09:26:27.013Z,27.20
2022-09-20T09:29:34.756Z,26.90
2022-09-20T09:32:26.756Z,26.70
2022-09-20T09:35:00.014Z,26.40
2022-09-20T09:37:31.392Z,26.10
2022-09-20T09:40:25.075Z,26.10
2022-09-20T09:42:56.945Z,26.00
2022-09-20T09:45:49.130Z,26.00
2022-09-20T09:48:28.729Z,25.60
2022-09-20T09:51:20.116Z,25.50
2022-09-20T09:53:52.816Z,25.40
2022-09-20T09:57:21.079Z,25.00
2022-09-20T09:59:55.339Z,24.70
2022-09-20T10:03:25.169Z,24.60
2022-09-20T10:06:59.272Z,24.60
2022-09-20T10:10:09.650Z,24.60
2022-09-20T10:12:59.104Z,24.40
2022-09-20T10:15:46.170Z,24.50
2022-09-20T10:18:59.034Z,24.70
2022-09-20T10:21:42.074Z,24.50
2022-09-20T10:24:40.083Z,24.50
2022-09-20T10:27:35.301Z,24.70
2022-09-20T10:30:30.158Z,24.90
2022-09-20T10:33:30.057Z,24.90
2022-09-20T10:36:34.955Z,24.80
2022-09-20T10:39:25.079Z,25.00
2022-09-20T10:42:23.991Z,25.30
2022-09-20T10:45:53.282Z,25.10
2022-09-20T10:48:28.091Z,25.20
2022-09-20T10:51:19.356Z,25.00
2022-09-20T10:54:49.099Z,24.60
2022-09-20T10:57:49.987Z,24.70
2022-09-20T11:01:08.172Z,24.50
2022-09-20T11:04:14.086Z,24.60
2022-09-20T11:07:13.231Z,24.50
2022-09-20T11:09:56.133Z,24.40
2022-09-20T11:12:39.649Z,24.00
2022-09-20T11:15:42.239Z,24.40
2022-09-20T11:18:27.054Z,24.60
2022-09-20T11:21:28.134Z,24.80
2022-09-20T11:24:31.727Z,24.50
2022-09-20T11:27:14.145Z,24.30
2022-09-20T11:30:13.389Z,24.40
2022-09-20T11:33:05.166Z,24.50
2022-09-20T11:35:38.204Z,24.50
2022-09-20T11:38:29.146Z,24.60
2022-09-20T11:40:59.831Z,24.80
2022-09-20T11:43:33.114Z,25.10
2022-09-20T11:46:12.164Z,25.30
2022-09-20T11:48:57.116Z,25.40
2022-09-20T11:51:43.841Z,25.40
2022-09-20T11:55:10.144Z,25.20
2022-09-20T11:57:37.624Z,25.10
2022-09-20T12:00:18.151Z,25.30
2022-09-20T12:02:51.301Z,25.20
2022-09-20T12:06:03.169Z,25.10
2022-09-20T12:08:36.156Z,25.10
2022-09-20T12:11:15.138Z,24.90
2022-09-20T12:13:52.614Z,24.80
2022-09-20T12:16:48.226Z,24.80
2022-09-20T12:19:37.160Z,25.10
2022-09-20T12:22:03.915Z,25.30
2022-09-20T12:24:45.651Z,25.60
2022-09-20T12:27:27.573Z,25.70
2022-09-20T12:30:36.179Z,25.70
2022-09-20T12:33:03.196Z,25.30
2022-09-20T12:35:42.146Z,25.10
2022-09-20T12:38:20.464Z,25.00
2022-09-20T12:41:17.203Z,25.10
2022-09-20T12:44:00.426Z,25.30
2022-09-20T12:47:07.209Z,25.20
2022-09-20T12:49:42.884Z,25.10
2022-09-20T12:52:48.226Z,25.30
2022-09-20T12:55:27.097Z,25.40
2022-09-20T12:58:21.181Z,25.60
2022-09-20T13:00:57.946Z,25.40
2022-09-20T13:03:49.159Z,25.40
2022-09-20T13:06:15.937Z,25.30
2022-09-20T13:09:08.224Z,25.30
2022-09-20T13:11:47.495Z,25.40
2022-09-20T13:14:50.159Z,25.50
2022-09-20T13:17:26.302Z,25.50
2022-09-20T13:20:03.297Z,25.50
2022-09-20T13:22:38.122Z,25.50
2022-09-20T13:25:15.187Z,25.40
2022-09-20T13:28:07.688Z,25.40
2022-09-20T13:30:41.324Z,25.40
2022-09-20T13:33:30.364Z,25.50
2022-09-20T13:36:04.304Z,25.60
2022-09-20T13:38:34.371Z,25.60
2022-09-20T13:41:14.261Z,25.70
2022-09-20T13:43:47.679Z,25.80
2022-09-20T13:46:38.193Z,25.60
2022-09-20T13:49:19.185Z,25.70
2022-09-20T13:51:58.279Z,25.80
2022-09-20T13:54:33.312Z,25.90
2022-09-20T13:57:13.444Z,26.10
2022-09-20T13:59:44.916Z,26.10
2022-09-20T14:02:38.216Z,26.20
2022-09-20T14:05:07.427Z,26.30
2022-09-20T14:07:41.272Z,26.20
2022-09-20T14:10:45.259Z,26.20
2022-09-20T14:13:22.236Z,26.30
2022-09-20T14:15:49.233Z,26.20
2022-09-20T14:18:25.247Z,26.00
2022-09-20T14:20:58.295Z,25.80
2022-09-20T14:23:27.521Z,25.70
2022-09-20T14:26:14.479Z,25.60
2022-09-20T14:28:41.626Z,25.40
2022-09-20T14:31:21.791Z,25.50
2022-09-20T14:33:55.321Z,25.50
2022-09-20T14:36:34.058Z,25.60
2022-09-20T14:39:21.251Z,25.70
2022-09-20T14:41:57.427Z,25.60
2022-09-20T14:44:38.259Z,25.70
2022-09-20T14:47:15.328Z,25.70
2022-09-20T14:49:52.314Z,25.70
2022-09-20T14:52:31.058Z,25.70
2022-09-20T14:55:19.283Z,25.90
2022-09-20T14:57:46.196Z,25.90
2022-09-20T15:00:24.254Z,25.90
2022-09-20T15:02:57.257Z,25.90
2022-09-20T15:05:26.178Z,25.80
2022-09-20T15:08:03.276Z,25.70
2022-09-20T15:10:36.761Z,25.60
2022-09-20T15:13:03.608Z,25.50
2022-09-20T15:15:30.429Z,25.40
2022-09-20T15:18:03.271Z,25.40
2022-09-20T15:20:30.121Z,25.20
2022-09-20T15:23:03.280Z,25.30
2022-09-20T15:25:30.155Z,25.30
2022-09-20T15:28:03.301Z,25.40
2022-09-20T15:30:30.159Z,25.50
2022-09-20T15:33:03.363Z,25.40
2022-09-20T15:35:30.260Z,25.30
2022-09-20T15:37:57.207Z,25.30
2022-09-20T15:40:30.443Z,25.30
2022-09-20T15:42:57.339Z,25.30
2022-09-20T15:45:30.349Z,25.20
2022-09-20T15:48:04.288Z,25.20
2022-09-20T15:50:31.147Z,25.30
2022-09-20T15:53:05.295Z,25.30
2022-09-20T15:55:32.170Z,25.40
2022-09-20T15:58:05.288Z,25.40
2022-09-20T16:00:32.186Z,25.50
2022-09-20T16:03:05.292Z,25.50
2022-09-20T16:05:32.141Z,25.30
2022-09-20T16:08:05.367Z,25.30
2022-09-20T16:10:32.296Z,25.10
2022-09-20T16:13:05.312Z,24.90
2022-09-20T16:15:32.159Z,24.90
2022-09-20T16:18:05.322Z,24.90
2022-09-20T16:20:32.179Z,24.90
2022-09-20T16:23:05.353Z,24.90
2022-09-20T16:25:32.176Z,24.90
2022-09-20T16:27:59.058Z,24.90
2022-09-20T16:30:32.313Z,24.80
2022-09-20T16:32:59.218Z,24.80
2022-09-20T16:35:32.334Z,24.70
2022-09-20T16:37:59.243Z,24.60
2022-09-20T16:40:32.426Z,24.50
2022-09-20T16:42:59.305Z,24.40
2022-09-20T16:45:35.336Z,24.40
2022-09-20T16:48:06.418Z,24.40
2022-09-20T16:50:41.346Z,24.30
2022-09-20T16:53:08.281Z,24.30
2022-09-20T16:55:41.368Z,24.20
2022-09-20T16:58:08.226Z,24.10
2022-09-20T17:00:41.406Z,24.00
2022-09-20T17:03:08.433Z,23.90
2022-09-20T17:05:41.444Z,23.90
2022-09-20T17:08:08.378Z,23.90
2022-09-20T17:10:41.379Z,23.80
2022-09-20T17:13:08.361Z,23.70
2022-09-20T17:15:35.232Z,23.70
2022-09-20T17:18:11.249Z,23.60
2022-09-20T17:20:40.399Z,23.50
2022-09-20T17:23:13.385Z,23.40
2022-09-20T17:25:46.388Z,23.30
2022-09-20T17:28:19.363Z,23.20
2022-09-20T17:30:46.226Z,23.10
2022-09-20T17:33:19.374Z,22.90
2022-09-20T17:35:52.422Z,22.90
2022-09-20T17:38:25.376Z,22.80
2022-09-20T17:41:04.899Z,22.70
2022-09-20T17:43:38.377Z,22.60
2022-09-20T17:46:16.923Z,22.50
2022-09-20T17:48:51.379Z,22.40
2022-09-20T17:51:19.322Z,22.40
2022-09-20T17:54:00.403Z,22.20
2022-09-20T17:56:27.544Z,22.10
2022-09-20T17:59:08.429Z,21.90
2022-09-20T18:01:35.619Z,21.70
2022-09-20T18:04:03.029Z,21.50
2022-09-20T18:06:58.416Z,21.40
2022-09-20T18:09:26.203Z,21.20
2022-09-20T18:12:01.402Z,21.00
2022-09-20T18:14:28.497Z,20.90
2022-09-20T18:17:04.394Z,20.70
2022-09-20T18:19:31.257Z,20.60
2022-09-20T18:22:05.414Z,20.40
2022-09-20T18:24:32.264Z,20.20
2022-09-20T18:27:05.434Z,20.00
2022-09-20T18:29:32.300Z,19.70
2022-09-20T18:31:59.137Z,19.40
2022-09-20T18:34:34.418Z,19.10
2022-09-20T18:37:01.609Z,18.90
2022-09-20T18:39:39.499Z,18.70
2022-09-20T18:42:06.566Z,18.60
2022-09-20T18:44:39.424Z,18.40
2022-09-20T18:47:06.429Z,18.30
2022-09-20T18:49:39.388Z,18.10
2022-09-20T18:52:12.446Z,18.00
2022-09-20T18:54:45.398Z,17.80
2022-09-20T18:57:12.726Z,17.40
2022-09-20T18:59:54.063Z,17.10
2022-09-20T19:03:06.790Z,17.00
2022-09-20T19:05:54.482Z,16.80
2022-09-20T19:08:48.967Z,16.60
2022-09-20T19:11:43.462Z,16.60
2022-09-20T19:14:25.571Z,16.60
2022-09-20T19:17:04.437Z,16.60
2022-09-20T19:20:08.439Z,16.50
2022-09-20T19:23:26.422Z,16.50
2022-09-20T19:26:25.494Z,16.50
2022-09-20T19:29:00.107Z,16.40
2022-09-20T19:31:38.499Z,16.50
2022-09-20T19:34:21.436Z,16.60
2022-09-20T19:37:28.492Z,16.60
2022-09-20T19:40:07.563Z,16.60
2022-09-20T19:43:22.458Z,16.50
2022-09-20T19:46:22.551Z,16.60
2022-09-20T19:49:13.527Z,16.60
2022-09-20T19:51:47.467Z,16.50
2022-09-20T19:54:21.464Z,16.50
2022-09-20T19:57:05.497Z,16.50
2022-09-20T19:59:32.669Z,16.50
2022-09-20T20:02:06.549Z,16.50
2022-09-20T20:04:33.984Z,16.40
2022-09-20T20:07:26.485Z,16.30
2022-09-20T20:10:46.506Z,16.30
2022-09-20T20:13:36.015Z,16.30
2022-09-20T20:16:17.568Z,16.20
2022-09-20T20:19:22.477Z,16.20
2022-09-20T20:21:57.699Z,16.10
2022-09-20T20:24:59.476Z,16.10
2022-09-20T20:27:33.605Z,16.00
2022-09-20T20:30:00.473Z,16.00
2022-09-20T20:32:33.505Z,15.90
2022-09-20T20:35:06.499Z,15.90
2022-09-20T20:37:34.868Z,15.90
2022-09-20T20:40:08.516Z,15.90
2022-09-20T20:42:35.392Z,15.90
2022-09-20T20:45:08.499Z,15.80
2022-09-20T20:47:35.371Z,15.80
2022-09-20T20:50:08.539Z,15.70
2022-09-20T20:52:35.405Z,15.70
2022-09-20T20:55:08.510Z,15.70
2022-09-20T20:57:35.393Z,15.60
2022-09-20T21:00:09.529Z,15.60
2022-09-20T21:02:36.452Z,15.60
2022-09-20T21:05:03.537Z,15.70
2022-09-20T21:07:36.517Z,15.60
2022-09-20T21:10:03.684Z,15.60
2022-09-20T21:12:37.517Z,15.60
2022-09-20T21:15:11.515Z,15.50
2022-09-20T21:17:38.350Z,15.50
2022-09-20T21:20:12.517Z,15.40
2022-09-20T21:22:45.516Z,15.40
2022-09-20T21:25:12.393Z,15.40
2022-09-20T21:27:45.532Z,15.40
2022-09-20T21:30:19.516Z,15.30
2022-09-20T21:32:46.358Z,15.40
2022-09-20T21:35:19.539Z,15.40
2022-09-20T21:37:46.389Z,15.30
2022-09-20T21:40:19.583Z,15.30
2022-09-20T21:42:46.620Z,15.40
2022-09-20T21:45:20.537Z,15.40
2022-09-20T21:47:48.994Z,15.30
2022-09-20T21:50:22.526Z,15.30
2022-09-20T21:52:55.582Z,15.30
2022-09-20T21:55:22.402Z,15.30
2022-09-20T21:57:55.509Z,15.30
2022-09-20T22:00:22.369Z,15.40
2022-09-20T22:02:55.559Z,15.30
2022-09-20T22:05:28.549Z,15.40
2022-09-20T22:07:55.447Z,15.40
2022-09-20T22:10:30.546Z,15.40
2022-09-20T22:13:03.579Z,15.40
2022-09-20T22:15:30.471Z,15.40
2022-09-20T22:18:03.559Z,15.30
2022-09-20T22:20:30.412Z,15.30
2022-09-20T22:23:03.539Z,15.30
2022-09-20T22:25:30.457Z,15.30
2022-09-20T22:28:03.564Z,15.30
2022-09-20T22:30:30.445Z,15.30
2022-09-20T22:33:03.574Z,15.30
2022-09-20T22:35:30.517Z,15.30
2022-09-20T22:38:03.574Z,15.30
2022-09-20T22:40:36.639Z,15.20
2022-09-20T22:43:03.546Z,15.20
2022-09-20T22:45:37.644Z,15.30
2022-09-20T22:48:04.659Z,15.30
2022-09-20T22:50:31.550Z,15.20
2022-09-20T22:53:04.594Z,15.10
2022-09-20T22:55:38.541Z,15.00
2022-09-20T22:58:05.432Z,14.90
2022-09-20T23:00:38.567Z,14.90
2022-09-20T23:03:05.574Z,14.90
2022-09-20T23:05:38.588Z,14.90
2022-09-20T23:08:05.861Z,15.00
2022-09-20T23:10:39.608Z,15.00
2022-09-20T23:13:06.489Z,15.00
2022-09-20T23:15:39.619Z,15.10
2022-09-20T23:18:06.584Z,15.00
2022-09-20T23:20:39.597Z,14.80
2022-09-20T23:23:06.467Z,14.80
2022-09-20T23:25:39.619Z,14.80
2022-09-20T23:28:12.658Z,14.70
2022-09-20T23:30:46.661Z,14.70
2022-09-20T23:33:13.599Z,14.50
2022-09-20T23:35:45.005Z,14.40
2022-09-20T23:38:21.310Z,14.40
2022-09-20T23:40:48.146Z,14.40
2022-09-20T23:43:21.639Z,14.50
2022-09-20T23:45:48.522Z,14.40
2022-09-20T23:48:21.621Z,14.30
2022-09-20T23:50:48.478Z,14.20
2022-09-20T23:53:29.616Z,14.00
2022-09-20T23:55:56.457Z,13.90
2022-09-20T23:58:29.700Z,13.90
